Time;durP1;ratioP1;P1;durP2;ratioP2;P2;SDS_P1;SDS_P2;PMS_P1;PMS_P2;Temp;Humidity;BMP_temperature;BMP_pressure;BME280_temperature;BME280_humidity;BME280_pressure;Samples;Min_cycle;Max_cycle;Signal;HPM_P1;HPM_P2
2021/08/30 00:01:46;;;;;;;17.33;13.18;;;25.60;67.00;;;;;;4166102;28;20105;-43
2021/08/30 00:03:48;;;;;;;25.42;11.60;;;25.50;67.60;;;;;;4165988;28;20045;-45
2021/08/30 00:05:50;;;;;;;20.35;12.02;;;25.50;66.70;;;;;;4166665;28;20050;-45
2021/08/30 00:07:52;;;;;;;22.63;13.13;;;25.50;66.80;;;;;;4165833;28;20110;-46
2021/08/30 00:09:54;;;;;;;24.65;12.95;;;25.60;67.20;;;;;;4165633;28;20073;-46
2021/08/30 00:11:56;;;;;;;28.10;13.65;;;25.60;67.60;;;;;;4166424;28;20057;-47
2021/08/30 00:13:58;;;;;;;21.70;12.27;;;25.60;67.80;;;;;;4166354;28;20045;-46
2021/08/30 00:16:01;;;;;;;36.05;12.90;;;25.60;66.60;;;;;;4165697;28;20079;-43
2021/08/30 00:18:03;;;;;;;29.60;10.95;;;25.70;66.40;;;;;;4165737;28;20046;-44
2021/08/30 00:20:09;;;;;;;28.67;11.68;;;25.70;66.00;;;;;;4165716;28;20045;-45
2021/08/30 00:22:11;;;;;;;39.33;13.38;;;25.70;66.70;;;;;;4165437;28;20093;-46
2021/08/30 00:24:13;;;;;;;41.00;12.70;;;25.70;67.50;;;;;;4166033;28;20555;-43
2021/08/30 00:26:15;;;;;;;25.50;11.98;;;25.70;67.60;;;;;;4165510;28;20105;-46
2021/08/30 00:28:17;;;;;;;39.78;13.20;;;25.70;67.00;;;;;;4165635;28;20111;-43
2021/08/30 00:30:19;;;;;;;26.85;12.20;;;25.70;67.20;;;;;;4164992;28;20101;-44
2021/08/30 00:32:21;;;;;;;28.48;11.32;;;25.70;67.20;;;;;;4165730;28;20069;-44
2021/08/30 00:34:25;;;;;;;28.13;12.90;;;25.70;66.90;;;;;;4165531;28;20097;-43
2021/08/30 00:36:27;;;;;;;35.60;14.07;;;25.70;67.00;;;;;;4165770;28;20042;-44
2021/08/30 00:38:29;;;;;;;25.20;12.57;;;25.70;66.80;;;;;;4165988;28;20038;-44
2021/08/30 00:40:31;;;;;;;20.38;12.40;;;25.70;66.90;;;;;;4165583;28;20041;-47
2021/08/30 00:42:33;;;;;;;24.10;11.23;;;25.70;66.80;;;;;;4165838;28;20109;-44
2021/08/30 00:44:35;;;;;;;25.63;12.90;;;25.60;66.80;;;;;;4165578;28;20064;-44
2021/08/30 00:46:37;;;;;;;22.10;11.60;;;25.70;66.80;;;;;;4165858;28;20097;-43
2021/08/30 00:48:40;;;;;;;21.23;12.63;;;25.60;66.70;;;;;;4165657;28;20076;-44
2021/08/30 00:50:42;;;;;;;22.27;12.30;;;25.60;66.60;;;;;;4165674;28;20097;-44
2021/08/30 00:52:44;;;;;;;23.23;12.63;;;25.60;66.60;;;;;;4165575;28;20053;-44
2021/08/30 00:54:46;;;;;;;25.52;12.63;;;25.60;66.70;;;;;;4165491;28;20097;-43
2021/08/30 00:56:48;;;;;;;40.20;13.10;;;25.60;66.60;;;;;;4165541;28;20046;-44
2021/08/30 00:58:50;;;;;;;23.75;11.60;;;25.60;66.50;;;;;;4165663;28;20056;-45
2021/08/30 01:00:52;;;;;;;21.23;11.55;;;25.60;66.60;;;;;;4165602;28;20037;-44
2021/08/30 01:02:55;;;;;;;19.42;11.90;;;25.50;66.50;;;;;;4165498;28;20042;-45
2021/08/30 01:04:58;;;;;;;22.17;11.98;;;25.50;66.50;;;;;;4164752;28;20125;-43
2021/08/30 01:07:12;;;;;;;16.33;11.05;;;25.50;66.40;;;;;;4165539;28;20069;-46
2021/08/30 01:09:35;;;;;;;21.02;10.18;;;25.50;66.50;;;;;;4165469;28;20050;-44
2021/08/30 01:11:47;;;;;;;15.63;9.15;;;25.50;66.40;;;;;;4165567;28;20050;-45
2021/08/30 01:13:56;;;;;;;20.63;10.25;;;25.50;66.30;;;;;;4165334;28;20045;-44
2021/08/30 01:16:01;;;;;;;17.98;11.15;;;25.50;66.30;;;;;;4165515;28;20121;-44
2021/08/30 01:18:04;;;;;;;17.50;11.05;;;25.50;66.20;;;;;;4165411;28;20049;-44
2021/08/30 01:20:10;;;;;;;19.33;11.23;;;25.50;66.30;;;;;;4165294;28;20045;-43
2021/08/30 01:22:13;;;;;;;17.63;10.02;;;25.50;66.30;;;;;;4165268;28;20093;-45
2021/08/30 01:24:19;;;;;;;18.92;11.60;;;25.50;66.20;;;;;;4165448;28;20101;-46
2021/08/30 01:26:24;;;;;;;16.20;9.60;;;25.50;66.20;;;;;;4165077;28;20049;-44
2021/08/30 01:28:33;;;;;;;14.00;10.30;;;25.50;66.20;;;;;;4165321;28;20101;-45
2021/08/30 01:30:37;;;;;;;16.00;9.73;;;25.50;66.20;;;;;;4165322;28;20101;-46
2021/08/30 01:32:42;;;;;;;22.20;10.98;;;25.40;66.30;;;;;;4165268;28;20046;-46
2021/08/30 01:34:44;;;;;;;18.98;10.80;;;25.40;66.20;;;;;;4165237;28;20106;-45
2021/08/30 01:36:49;;;;;;;15.70;10.02;;;25.40;66.20;;;;;;4165188;28;20145;-44
2021/08/30 01:38:58;;;;;;;21.88;9.93;;;25.50;66.20;;;;;;4165360;28;20462;-43
2021/08/30 01:41:00;;;;;;;13.15;9.68;;;25.50;66.10;;;;;;4165290;28;20102;-45
2021/08/30 01:43:04;;;;;;;18.90;10.88;;;25.40;66.20;;;;;;4165142;28;20052;-46
2021/08/30 01:45:09;;;;;;;11.57;8.57;;;25.40;66.10;;;;;;4164883;28;20064;-43
2021/08/30 01:47:12;;;;;;;16.48;10.10;;;25.40;66.10;;;;;;4165262;28;20045;-44
2021/08/30 01:49:14;;;;;;;15.88;10.05;;;25.40;66.10;;;;;;4165143;28;20152;-46
2021/08/30 01:51:23;;;;;;;14.35;9.88;;;25.40;66.10;;;;;;4165284;28;20106;-45
2021/08/30 01:53:26;;;;;;;14.07;9.23;;;25.40;66.00;;;;;;4165242;28;20110;-44
2021/08/30 01:55:44;;;;;;;13.80;10.45;;;25.40;66.10;;;;;;4164903;28;20101;-43
2021/08/30 02:02:22;;;;;;;13.13;9.30;;;25.40;66.00;;;;;;4165163;28;19960;-45
2021/08/30 02:04:24;;;;;;;11.75;9.20;;;25.50;65.90;;;;;;4165068;28;20054;-45
2021/08/30 02:06:26;;;;;;;12.50;9.40;;;25.40;65.90;;;;;;4165119;28;20050;-45
2021/08/30 02:08:30;;;;;;;12.50;9.13;;;25.40;65.80;;;;;;4165448;28;20042;-43
2021/08/30 02:10:32;;;;;;;13.27;10.65;;;25.40;65.70;;;;;;4167292;28;20109;-45
2021/08/30 02:12:36;;;;;;;13.55;9.57;;;25.40;65.80;;;;;;4168137;28;20046;-45
2021/08/30 02:14:38;;;;;;;12.43;9.57;;;25.40;65.80;;;;;;4168122;28;20066;-43
2021/08/30 02:16:40;;;;;;;11.73;9.93;;;25.40;65.80;;;;;;4168060;28;20042;-43
2021/08/30 02:18:45;;;;;;;11.50;9.52;;;25.40;65.70;;;;;;4168029;28;20038;-47
2021/08/30 02:20:54;;;;;;;11.70;9.88;;;25.40;65.80;;;;;;4168037;28;20077;-45
2021/08/30 02:22:59;;;;;;;11.63;8.40;;;25.40;65.80;;;;;;4167962;28;20037;-44
2021/08/30 02:25:09;;;;;;;13.40;9.20;;;25.40;65.70;;;;;;4167914;28;20046;-45
2021/08/30 02:27:15;;;;;;;15.27;9.75;;;25.40;65.70;;;;;;4167949;28;20124;-47
2021/08/30 02:29:28;;;;;;;12.80;9.30;;;25.40;65.70;;;;;;4167845;28;20105;-46
2021/08/30 02:31:31;;;;;;;14.45;10.85;;;25.40;65.70;;;;;;4167947;28;20057;-45
2021/08/30 02:33:34;;;;;;;10.35;8.90;;;25.40;65.70;;;;;;4167714;28;20045;-43
2021/08/30 02:35:40;;;;;;;13.35;8.55;;;25.40;65.70;;;;;;4167504;28;20096;-45
2021/08/30 02:37:44;;;;;;;11.88;8.77;;;25.40;65.70;;;;;;4167542;28;20041;-43
2021/08/30 02:39:49;;;;;;;10.73;9.10;;;25.40;65.60;;;;;;4167647;28;20099;-44
2021/08/30 02:41:51;;;;;;;13.85;7.95;;;25.40;65.70;;;;;;4167602;28;20098;-45
2021/08/30 02:43:55;;;;;;;9.90;8.27;;;25.40;65.70;;;;;;4167567;28;20072;-45
2021/08/30 02:45:58;;;;;;;10.00;7.72;;;25.40;65.60;;;;;;4167478;28;20053;-44
2021/08/30 02:48:02;;;;;;;11.85;8.98;;;25.40;65.60;;;;;;4167543;28;20049;-43
2021/08/30 02:50:06;;;;;;;9.18;8.02;;;25.40;65.60;;;;;;4167512;28;20046;-44
2021/08/30 02:52:10;;;;;;;12.85;8.98;;;25.40;65.60;;;;;;4167501;28;20049;-44
2021/08/30 02:54:14;;;;;;;11.10;8.18;;;25.40;65.60;;;;;;4167365;28;20098;-46
2021/08/30 02:56:17;;;;;;;12.68;8.40;;;25.40;65.60;;;;;;4167496;28;20588;-43
2021/08/30 02:58:20;;;;;;;11.07;8.52;;;25.40;65.60;;;;;;4167361;28;20098;-44
2021/08/30 03:00:22;;;;;;;11.07;8.00;;;25.40;65.60;;;;;;4166489;28;20105;-44
2021/08/30 03:02:25;;;;;;;11.43;7.97;;;25.40;65.50;;;;;;4167357;28;20045;-46
2021/08/30 03:04:30;;;;;;;10.43;8.63;;;25.40;65.50;;;;;;4167377;28;20069;-45
2021/08/30 03:06:33;;;;;;;8.77;7.90;;;25.40;65.50;;;;;;4167395;28;20049;-43
2021/08/30 03:08:35;;;;;;;11.10;7.88;;;25.40;65.50;;;;;;4167348;28;20116;-45
2021/08/30 03:10:38;;;;;;;13.02;8.68;;;25.40;65.40;;;;;;4167208;28;20038;-47
2021/08/30 03:12:42;;;;;;;9.18;8.07;;;25.40;65.40;;;;;;4166091;28;20069;-46
2021/08/30 03:14:46;;;;;;;10.50;8.15;;;25.40;65.40;;;;;;4166950;28;20136;-43
2021/08/30 03:16:55;;;;;;;11.23;7.50;;;25.40;65.40;;;;;;4167114;28;20069;-44
2021/08/30 03:18:58;;;;;;;10.52;7.65;;;25.40;65.40;;;;;;4167103;28;20101;-44
2021/08/30 03:21:01;;;;;;;9.68;7.75;;;25.40;65.30;;;;;;4165946;28;20072;-47
2021/08/30 03:23:03;;;;;;;9.98;7.90;;;25.40;65.30;;;;;;4166914;28;20094;-45
2021/08/30 03:25:07;;;;;;;9.32;7.53;;;25.40;65.20;;;;;;4167022;28;20077;-44
2021/08/30 03:27:11;;;;;;;8.80;6.75;;;25.40;65.20;;;;;;4166880;28;20109;-44
2021/08/30 03:29:14;;;;;;;11.02;7.47;;;25.40;65.20;;;;;;4166714;28;20048;-44
2021/08/30 03:31:17;;;;;;;9.35;8.45;;;25.40;65.30;;;;;;4166750;28;20072;-43
2021/08/30 03:33:20;;;;;;;7.70;7.00;;;25.40;65.20;;;;;;4166593;28;20042;-45
2021/08/30 03:35:23;;;;;;;8.23;7.35;;;25.40;65.20;;;;;;4166626;28;20101;-44
2021/08/30 03:37:26;;;;;;;8.30;7.15;;;25.30;65.20;;;;;;4166527;28;20046;-44
2021/08/30 03:39:28;;;;;;;9.13;7.45;;;25.40;65.10;;;;;;4166709;28;20046;-47
2021/08/30 03:41:31;;;;;;;9.35;7.30;;;25.40;65.20;;;;;;4182385;28;20092;-47
2021/08/30 03:43:33;;;;;;;8.75;7.57;;;25.40;65.20;;;;;;4166728;28;20120;-44
2021/08/30 03:45:37;;;;;;;9.50;7.70;;;25.40;65.20;;;;;;4166490;28;20084;-46
2021/08/30 03:47:41;;;;;;;10.43;7.32;;;25.30;65.20;;;;;;4166534;28;20124;-46
2021/08/30 03:49:44;;;;;;;10.60;8.02;;;25.40;65.20;;;;;;4166462;28;20053;-43
2021/08/30 03:51:47;;;;;;;12.90;7.70;;;25.40;65.20;;;;;;4166288;28;20125;-42
2021/08/30 03:53:51;;;;;;;9.75;7.03;;;25.40;65.10;;;;;;4166488;28;20041;-43
2021/08/30 03:55:54;;;;;;;10.27;7.20;;;25.40;65.10;;;;;;4166569;28;20045;-45
2021/08/30 03:57:59;;;;;;;7.97;7.18;;;25.30;65.10;;;;;;4166511;28;20050;-43
2021/08/30 04:00:05;;;;;;;8.25;7.43;;;25.30;65.20;;;;;;4166499;28;20034;-44
2021/08/30 04:02:08;;;;;;;7.88;6.97;;;25.30;65.10;;;;;;4166167;28;20084;-43
2021/08/30 04:04:19;;;;;;;7.85;6.82;;;25.40;65.10;;;;;;4166403;28;20049;-43
2021/08/30 04:06:23;;;;;;;9.40;7.45;;;25.30;64.90;;;;;;4166457;28;20101;-42
2021/08/30 04:08:26;;;;;;;7.38;6.57;;;25.30;65.00;;;;;;4166326;28;20124;-44
2021/08/30 04:10:29;;;;;;;7.65;6.72;;;25.40;64.90;;;;;;4166319;28;20056;-44
2021/08/30 04:12:31;;;;;;;6.90;6.25;;;25.30;65.00;;;;;;4165987;28;20056;-43
2021/08/30 04:14:34;;;;;;;7.65;6.85;;;25.30;65.00;;;;;;4166222;28;20050;-42
2021/08/30 04:16:36;;;;;;;7.00;6.30;;;25.30;64.90;;;;;;4166133;28;20060;-44
2021/08/30 04:18:38;;;;;;;9.75;6.60;;;25.30;64.80;;;;;;4166071;28;20109;-43
2021/08/30 04:20:40;;;;;;;10.63;6.72;;;25.30;64.80;;;;;;4166286;28;20041;-44
2021/08/30 04:22:42;;;;;;;7.15;6.45;;;25.30;64.60;;;;;;4166250;28;20045;-43
2021/08/30 04:24:44;;;;;;;7.13;6.43;;;25.30;64.70;;;;;;4166014;28;20101;-43
2021/08/30 04:26:46;;;;;;;7.88;7.03;;;25.30;64.80;;;;;;4166070;28;20041;-43
2021/08/30 04:28:48;;;;;;;6.38;5.78;;;25.30;64.70;;;;;;4166020;28;20038;-43
2021/08/30 04:30:52;;;;;;;7.75;6.90;;;25.30;64.70;;;;;;4165861;28;20076;-44
2021/08/30 04:32:56;;;;;;;10.10;6.75;;;25.40;64.80;;;;;;4165466;28;20239;-44
2021/08/30 04:34:58;;;;;;;9.70;6.25;;;25.30;64.60;;;;;;4165818;28;20046;-48
2021/08/30 04:37:00;;;;;;;7.72;6.43;;;25.30;64.60;;;;;;4165976;28;20046;-44
2021/08/30 04:39:04;;;;;;;8.95;6.35;;;25.30;64.60;;;;;;4165782;28;20048;-44
2021/08/30 04:41:06;;;;;;;7.43;6.55;;;25.30;64.50;;;;;;4165794;28;20097;-45
2021/08/30 04:43:09;;;;;;;9.27;6.93;;;25.30;64.50;;;;;;4165525;28;20066;-48
2021/08/30 04:45:11;;;;;;;6.75;5.70;;;25.30;64.40;;;;;;4165448;28;20077;-47
2021/08/30 04:47:13;;;;;;;6.75;6.05;;;25.30;64.50;;;;;;4165606;28;20101;-46
2021/08/30 04:49:15;;;;;;;7.45;6.65;;;25.40;64.50;;;;;;4165653;28;20054;-48
2021/08/30 04:51:17;;;;;;;6.82;6.13;;;25.30;64.50;;;;;;4165624;28;20049;-46
2021/08/30 04:53:19;;;;;;;7.00;6.30;;;25.40;64.50;;;;;;4165791;28;20073;-46
2021/08/30 04:55:21;;;;;;;6.70;5.97;;;25.40;64.50;;;;;;4165488;28;20046;-47
2021/08/30 04:57:23;;;;;;;6.30;5.70;;;25.40;64.50;;;;;;4165515;28;20065;-45
2021/08/30 04:59:25;;;;;;;8.02;6.53;;;25.30;64.40;;;;;;4165511;28;20046;-47
2021/08/30 05:01:27;;;;;;;6.35;5.75;;;25.30;64.40;;;;;;4165336;28;20106;-43
2021/08/30 05:03:30;;;;;;;6.07;5.47;;;25.30;64.30;;;;;;4165435;28;20046;-43
2021/08/30 05:05:32;;;;;;;6.88;5.53;;;25.40;64.30;;;;;;4165521;28;20129;-46
2021/08/30 05:07:34;;;;;;;6.75;6.00;;;25.30;64.20;;;;;;4165415;28;20073;-43
2021/08/30 05:09:36;;;;;;;7.22;5.85;;;25.30;64.30;;;;;;4165603;28;20046;-45
2021/08/30 05:11:38;;;;;;;6.57;5.90;;;25.30;64.40;;;;;;4165283;28;20106;-44
2021/08/30 05:13:40;;;;;;;6.40;5.75;;;25.30;64.20;;;;;;4165494;28;20046;-43
2021/08/30 05:15:42;;;;;;;6.53;5.82;;;25.30;64.20;;;;;;4165274;28;20510;-44
2021/08/30 05:17:44;;;;;;;6.32;5.72;;;25.30;64.30;;;;;;4165445;28;20049;-43
2021/08/30 05:19:47;;;;;;;6.95;6.00;;;25.30;64.20;;;;;;4165353;28;20049;-43
2021/08/30 05:21:49;;;;;;;6.13;5.53;;;25.30;64.30;;;;;;4165353;28;20062;-44
2021/08/30 05:23:51;;;;;;;7.13;6.25;;;25.40;64.20;;;;;;4165446;28;20050;-44
2021/08/30 05:25:52;;;;;;;6.60;5.80;;;25.30;64.20;;;;;;4165495;28;20490;-44
2021/08/30 05:27:54;;;;;;;6.70;5.75;;;25.30;64.30;;;;;;4164586;28;20042;-45
2021/08/30 05:29:56;;;;;;;5.55;5.05;;;25.30;64.20;;;;;;4165215;28;20054;-49
2021/08/30 05:31:58;;;;;;;7.05;6.15;;;25.30;64.20;;;;;;4165087;28;20097;-47
2021/08/30 05:34:00;;;;;;;6.95;5.93;;;25.30;64.10;;;;;;4165242;28;20076;-44
2021/08/30 05:36:04;;;;;;;5.80;5.15;;;25.30;64.10;;;;;;4165304;28;20062;-44
2021/08/30 05:38:06;;;;;;;7.25;5.03;;;25.30;64.10;;;;;;4165394;28;20038;-44
2021/08/30 05:40:10;;;;;;;7.95;5.60;;;25.30;64.10;;;;;;4165208;28;20050;-43
2021/08/30 05:42:12;;;;;;;6.15;5.63;;;25.30;64.10;;;;;;4165328;28;20097;-43
2021/08/30 05:44:14;;;;;;;6.10;5.40;;;25.30;64.10;;;;;;4166852;28;20113;-46
2021/08/30 05:46:16;;;;;;;6.20;5.50;;;25.40;64.10;;;;;;4168046;28;20089;-46
2021/08/30 05:48:18;;;;;;;6.75;5.55;;;25.30;64.10;;;;;;4168550;28;20049;-44
2021/08/30 05:50:20;;;;;;;5.93;5.30;;;25.30;64.10;;;;;;4168333;28;20080;-47
2021/08/30 05:52:24;;;;;;;5.93;4.72;;;25.30;64.10;;;;;;4167460;28;20048;-45
2021/08/30 05:54:26;;;;;;;6.10;5.00;;;25.30;64.10;;;;;;4168177;28;20046;-46
2021/08/30 05:56:29;;;;;;;5.18;4.45;;;25.30;64.10;;;;;;4168314;28;20046;-45
2021/08/30 05:58:31;;;;;;;7.28;5.18;;;25.30;64.10;;;;;;4168330;28;20066;-45
2021/08/30 06:00:33;;;;;;;5.78;5.05;;;25.30;64.00;;;;;;4168266;28;20053;-45
2021/08/30 06:02:35;;;;;;;5.55;4.95;;;25.30;64.00;;;;;;4168161;28;20044;-48
2021/08/30 06:04:37;;;;;;;5.93;5.32;;;25.30;64.00;;;;;;4168112;28;20046;-45
2021/08/30 06:06:39;;;;;;;5.38;4.93;;;25.30;64.00;;;;;;4168043;28;20052;-47
2021/08/30 06:08:41;;;;;;;6.75;6.05;;;25.30;64.00;;;;;;4168129;28;20121;-45
2021/08/30 06:10:43;;;;;;;6.10;5.45;;;25.30;64.00;;;;;;4168276;28;20060;-45
2021/08/30 06:12:45;;;;;;;5.70;5.13;;;25.30;64.00;;;;;;4168100;28;20069;-43
2021/08/30 06:14:47;;;;;;;5.68;5.05;;;25.30;63.90;;;;;;4168140;28;20493;-48
2021/08/30 06:16:49;;;;;;;5.22;4.72;;;25.30;64.00;;;;;;4167921;28;20053;-43
2021/08/30 06:18:51;;;;;;;5.68;5.03;;;25.30;63.90;;;;;;4168122;28;20038;-43
2021/08/30 06:20:53;;;;;;;5.88;5.05;;;25.30;63.80;;;;;;4167967;28;20101;-44
2021/08/30 06:22:55;;;;;;;4.90;4.38;;;25.30;63.80;;;;;;4168102;28;20076;-44
2021/08/30 06:24:57;;;;;;;5.40;4.88;;;25.30;63.90;;;;;;4167836;28;20065;-46
2021/08/30 06:27:00;;;;;;;6.00;5.40;;;25.30;63.80;;;;;;4167600;28;20552;-45
2021/08/30 06:29:02;;;;;;;5.72;5.13;;;25.30;63.80;;;;;;4167725;28;20098;-45
2021/08/30 06:31:04;;;;;;;5.60;5.05;;;25.30;63.70;;;;;;4167852;28;20136;-44
2021/08/30 06:33:06;;;;;;;5.85;4.40;;;25.30;63.80;;;;;;4167821;28;20052;-46
2021/08/30 06:35:08;;;;;;;4.95;4.43;;;25.30;63.70;;;;;;4167645;28;20121;-43
2021/08/30 06:37:11;;;;;;;5.20;4.70;;;25.30;63.70;;;;;;4167575;28;20102;-45
2021/08/30 06:39:12;;;;;;;6.47;4.55;;;25.30;63.80;;;;;;4167799;28;20053;-45
2021/08/30 06:41:15;;;;;;;5.43;4.93;;;25.30;63.70;;;;;;4167792;28;20072;-45
2021/08/30 06:43:17;;;;;;;4.90;4.40;;;25.30;63.60;;;;;;4167683;28;20105;-43
2021/08/30 06:45:23;;;;;;;4.93;4.43;;;25.30;63.70;;;;;;4167514;28;20091;-43
2021/08/30 06:47:25;;;;;;;4.25;3.85;;;25.30;63.60;;;;;;4167718;28;20049;-42
2021/08/30 06:49:27;;;;;;;5.05;4.53;;;25.30;63.70;;;;;;4167513;28;20049;-43
2021/08/30 06:51:29;;;;;;;4.88;4.47;;;25.30;63.60;;;;;;4167479;28;20458;-44
2021/08/30 06:53:31;;;;;;;4.88;4.47;;;25.30;63.70;;;;;;4166615;28;20098;-43
2021/08/30 06:55:33;;;;;;;5.22;4.72;;;25.30;63.50;;;;;;4167065;28;20046;-43
2021/08/30 06:57:35;;;;;;;4.88;4.38;;;25.30;63.70;;;;;;4167399;28;20045;-44
2021/08/30 06:59:37;;;;;;;4.97;4.32;;;25.30;63.60;;;;;;4167547;28;20102;-42
2021/08/30 07:01:39;;;;;;;6.43;4.18;;;25.30;63.60;;;;;;4167516;28;20072;-44
2021/08/30 07:03:42;;;;;;;6.05;5.07;;;25.30;63.50;;;;;;4167360;28;20038;-44
2021/08/30 07:05:44;;;;;;;5.38;4.78;;;25.30;63.60;;;;;;4166413;28;20057;-45
2021/08/30 07:07:46;;;;;;;5.40;4.00;;;25.30;63.50;;;;;;4167324;28;20110;-44
2021/08/30 07:09:48;;;;;;;5.03;4.53;;;25.30;63.60;;;;;;4167353;28;20106;-45
2021/08/30 07:11:51;;;;;;;6.07;5.32;;;25.30;63.40;;;;;;4167154;28;20038;-43
2021/08/30 07:13:53;;;;;;;4.53;4.13;;;25.30;63.50;;;;;;4167081;28;20128;-44
2021/08/30 07:15:55;;;;;;;4.28;3.88;;;25.30;63.50;;;;;;4166998;28;20098;-44
2021/08/30 07:17:57;;;;;;;5.30;4.20;;;25.30;63.50;;;;;;4167063;28;20069;-43
2021/08/30 07:20:03;;;;;;;4.50;4.10;;;25.30;63.50;;;;;;4166015;28;20048;-42
2021/08/30 07:22:06;;;;;;;4.43;4.03;;;25.30;63.40;;;;;;4167084;28;20042;-45
2021/08/30 07:24:08;;;;;;;4.18;3.78;;;25.30;63.50;;;;;;4149661;28;20094;-44
2021/08/30 07:26:10;;;;;;;4.88;4.18;;;25.30;63.50;;;;;;4167079;28;20387;-44
2021/08/30 07:28:12;;;;;;;4.63;4.22;;;25.30;63.50;;;;;;4165773;28;20057;-44
2021/08/30 07:30:14;;;;;;;4.88;4.35;;;25.30;63.50;;;;;;4165932;28;20049;-44
2021/08/30 07:32:17;;;;;;;4.60;4.20;;;25.30;63.40;;;;;;4167022;28;20109;-43
2021/08/30 07:34:19;;;;;;;4.65;4.15;;;25.30;63.40;;;;;;4166048;28;20046;-44
2021/08/30 07:36:21;;;;;;;4.50;4.07;;;25.30;63.50;;;;;;4166923;28;20045;-44
2021/08/30 07:38:23;;;;;;;4.93;3.90;;;25.30;63.40;;;;;;4166930;28;20098;-44
2021/08/30 07:40:25;;;;;;;4.82;4.38;;;25.30;63.40;;;;;;4166847;28;20475;-44
2021/08/30 07:42:27;;;;;;;4.15;3.85;;;25.30;63.40;;;;;;4166708;28;20042;-44
2021/08/30 07:44:29;;;;;;;4.05;3.72;;;25.30;63.50;;;;;;4166569;28;20048;-43
2021/08/30 07:46:32;;;;;;;5.03;4.53;;;25.30;63.50;;;;;;4166657;28;20050;-44
2021/08/30 07:48:34;;;;;;;4.35;3.95;;;25.20;63.40;;;;;;4166486;28;20065;-43
2021/08/30 07:50:37;;;;;;;4.30;3.90;;;25.30;63.50;;;;;;4166593;28;20054;-44
2021/08/30 07:52:39;;;;;;;4.15;3.75;;;25.30;63.30;;;;;;4166670;28;20080;-45
2021/08/30 07:54:41;;;;;;;4.28;3.97;;;25.30;63.30;;;;;;4166490;28;20101;-44
2021/08/30 07:56:43;;;;;;;4.05;3.65;;;25.30;63.40;;;;;;4166512;28;20124;-43
2021/08/30 07:58:45;;;;;;;4.03;3.67;;;25.30;63.40;;;;;;4166292;28;20069;-44
2021/08/30 08:00:47;;;;;;;4.45;4.05;;;25.30;63.30;;;;;;4166359;28;20041;-43
2021/08/30 08:02:51;;;;;;;5.97;3.78;;;25.30;63.40;;;;;;4166507;28;20045;-42
2021/08/30 08:04:54;;;;;;;;;;;25.30;63.30;;;;;;4166807;28;20040;-44
2021/08/30 08:06:56;;;;;;;4.03;3.72;;;25.30;63.30;;;;;;4165856;28;19921;-44
2021/08/30 08:08:58;;;;;;;5.07;4.57;;;25.30;63.30;;;;;;4166230;28;20053;-44
2021/08/30 08:11:00;;;;;;;4.15;3.75;;;25.30;63.30;;;;;;4165946;28;20060;-43
2021/08/30 08:13:02;;;;;;;5.88;3.80;;;25.30;63.30;;;;;;4166288;28;20124;-44
2021/08/30 08:15:05;;;;;;;4.43;4.03;;;25.30;63.20;;;;;;4166172;28;20038;-43
2021/08/30 08:17:07;;;;;;;4.07;3.67;;;25.30;63.30;;;;;;4166057;28;20068;-45
2021/08/30 08:19:09;;;;;;;4.10;3.72;;;25.20;63.20;;;;;;4166320;28;20105;-45
2021/08/30 08:21:11;;;;;;;4.05;3.63;;;25.20;63.20;;;;;;4166181;28;20042;-43
2021/08/30 08:23:13;;;;;;;4.00;3.60;;;25.20;63.20;;;;;;4165193;28;20069;-46
2021/08/30 08:25:15;;;;;;;4.35;3.90;;;25.20;63.20;;;;;;4166224;28;20046;-44
2021/08/30 08:27:17;;;;;;;3.92;3.60;;;25.20;63.20;;;;;;4165808;28;20109;-44
2021/08/30 08:29:19;;;;;;;4.05;3.63;;;25.30;63.10;;;;;;4166076;28;20073;-44
2021/08/30 08:31:22;;;;;;;4.80;4.30;;;25.20;63.10;;;;;;4165903;28;20133;-44
2021/08/30 08:33:24;;;;;;;3.83;3.42;;;25.30;63.10;;;;;;4166051;28;20098;-42
2021/08/30 08:35:26;;;;;;;3.90;3.50;;;25.20;63.20;;;;;;4165880;28;20056;-45
2021/08/30 08:37:28;;;;;;;4.00;3.70;;;25.30;63.20;;;;;;4165074;28;20121;-44
2021/08/30 08:39:30;;;;;;;4.15;3.75;;;25.20;63.10;;;;;;4165876;28;20101;-44
2021/08/30 08:41:35;;;;;;;4.13;3.63;;;25.20;63.10;;;;;;4165881;28;20042;-43
2021/08/30 08:43:38;;;;;;;4.90;3.72;;;25.20;63.10;;;;;;4165770;28;20074;-44
2021/08/30 08:45:42;;;;;;;5.13;3.22;;;25.30;63.10;;;;;;4165727;28;20130;-44
2021/08/30 08:47:45;;;;;;;4.47;4.00;;;25.20;63.10;;;;;;4165742;28;20137;-45
2021/08/30 08:49:51;;;;;;;4.00;3.60;;;25.30;63.10;;;;;;4165662;28;20110;-44
2021/08/30 08:51:53;;;;;;;4.18;3.58;;;25.30;63.20;;;;;;4165689;28;20042;-48
2021/08/30 08:53:55;;;;;;;3.42;3.13;;;25.20;63.10;;;;;;4165107;28;20046;-43
2021/08/30 08:55:57;;;;;;;3.80;3.40;;;25.20;63.00;;;;;;4165532;28;20164;-43
2021/08/30 08:58:11;;;;;;;3.83;3.45;;;25.20;63.00;;;;;;4165627;28;20046;-44
2021/08/30 09:00:14;;;;;;;5.03;3.92;;;25.20;63.10;;;;;;4165353;28;20125;-45
2021/08/30 09:02:16;;;;;;;3.55;3.25;;;25.20;63.00;;;;;;4165438;28;20068;-45
2021/08/30 09:04:37;;;;;;;3.97;3.67;;;25.20;63.00;;;;;;4165318;28;20042;-43
2021/08/30 09:06:41;;;;;;;5.20;3.72;;;25.20;63.00;;;;;;4165476;28;20101;-45
2021/08/30 09:08:43;;;;;;;3.60;3.30;;;25.20;63.00;;;;;;4165273;28;20125;-43
2021/08/30 09:10:45;;;;;;;3.50;3.20;;;25.20;63.00;;;;;;4165383;28;20046;-46
2021/08/30 09:12:48;;;;;;;4.07;3.67;;;25.20;63.00;;;;;;4164256;28;20054;-45
2021/08/30 09:14:51;;;;;;;4.10;3.70;;;25.20;63.00;;;;;;4164994;28;20072;-45
2021/08/30 09:17:06;;;;;;;3.85;3.55;;;25.20;62.90;;;;;;4165273;28;20120;-46
2021/08/30 09:19:10;;;;;;;3.85;3.17;;;25.20;62.90;;;;;;4163567;28;20046;-47
2021/08/30 09:21:12;;;;;;;3.75;3.42;;;25.20;62.90;;;;;;4165415;28;20102;-46
2021/08/30 09:23:15;;;;;;;3.85;3.55;;;25.20;62.90;;;;;;4165304;28;20052;-48
2021/08/30 09:25:18;;;;;;;4.35;3.95;;;25.20;62.90;;;;;;4165503;28;20048;-47
2021/08/30 09:27:20;;;;;;;4.00;3.60;;;25.20;62.80;;;;;;4165411;28;20072;-44
2021/08/30 09:29:27;;;;;;;3.35;3.05;;;25.20;62.80;;;;;;4148094;28;20057;-47
2021/08/30 09:31:29;;;;;;;4.95;3.45;;;25.20;62.80;;;;;;4164336;28;20046;-47
2021/08/30 09:33:35;;;;;;;3.60;3.30;;;25.20;62.80;;;;;;4165213;28;20128;-46
2021/08/30 09:35:37;;;;;;;4.00;3.60;;;25.20;62.90;;;;;;4164149;28;20050;-46
2021/08/30 09:37:42;;;;;;;3.70;3.40;;;25.20;62.80;;;;;;4165121;28;20048;-48
2021/08/30 09:39:58;;;;;;;3.70;3.40;;;25.20;62.80;;;;;;4165189;28;20042;-47
2021/08/30 09:42:00;;;;;;;3.63;3.33;;;25.30;62.70;;;;;;4164220;28;20081;-45
2021/08/30 09:44:03;;;;;;;5.00;3.53;;;25.20;62.80;;;;;;4165256;28;20062;-44
2021/08/30 09:46:08;;;;;;;3.90;3.50;;;25.20;62.70;;;;;;4165008;28;20054;-49
2021/08/30 09:48:12;;;;;;;3.97;3.67;;;25.30;62.80;;;;;;4165085;28;20045;-47
2021/08/30 09:50:14;;;;;;;;;;;25.20;62.80;;;;;;4165294;28;20042;-44
2021/08/30 09:52:19;;;;;;;3.70;3.40;;;25.20;62.80;;;;;;4165213;28;20670;-43
2021/08/30 09:54:23;;;;;;;4.30;3.90;;;25.20;62.70;;;;;;4165228;28;20045;-43
2021/08/30 09:56:25;;;;;;;4.57;4.18;;;25.20;62.80;;;;;;4165007;28;20046;-44
2021/08/30 09:58:29;;;;;;;3.35;3.05;;;25.20;62.80;;;;;;4164110;28;20058;-44
2021/08/30 10:00:33;;;;;;;4.55;3.70;;;25.20;62.60;;;;;;4165075;28;20065;-44
2021/08/30 10:02:36;;;;;;;3.55;3.25;;;25.20;62.70;;;;;;4165199;28;20076;-44
2021/08/30 10:04:40;;;;;;;6.07;3.28;;;25.20;62.60;;;;;;4164124;28;20042;-44
2021/08/30 10:06:42;;;;;;;3.40;3.10;;;25.20;62.70;;;;;;4165024;28;20136;-45
2021/08/30 10:08:45;;;;;;;3.33;3.10;;;25.20;62.60;;;;;;4164109;28;20072;-43
2021/08/30 10:10:48;;;;;;;3.60;3.30;;;25.20;62.70;;;;;;4164954;28;20043;-48
2021/08/30 10:12:51;;;;;;;3.38;3.08;;;25.30;62.70;;;;;;4164568;28;20048;-45
2021/08/30 10:14:54;;;;;;;3.97;3.45;;;25.30;62.60;;;;;;4164855;28;20073;-45
2021/08/30 10:16:57;;;;;;;3.75;3.05;;;25.20;62.70;;;;;;4164808;28;20435;-45
2021/08/30 10:19:00;;;;;;;3.75;3.45;;;25.20;62.50;;;;;;4164960;28;20042;-45
2021/08/30 10:21:14;;;;;;;4.22;3.63;;;25.20;62.60;;;;;;4164793;28;20045;-43
2021/08/30 10:23:21;;;;;;;3.85;3.35;;;25.20;62.50;;;;;;4180408;28;20041;-45
2021/08/30 10:25:24;;;;;;;3.70;3.40;;;25.20;62.70;;;;;;4164893;28;20038;-45
2021/08/30 10:27:29;;;;;;;3.60;3.30;;;25.20;62.60;;;;;;4164789;28;20046;-44
2021/08/30 10:29:35;;;;;;;3.00;2.72;;;25.20;62.60;;;;;;4165343;28;20046;-43
2021/08/30 10:31:52;;;;;;;3.78;3.40;;;25.20;62.60;;;;;;4166928;28;20083;-43
2021/08/30 10:33:57;;;;;;;3.25;2.95;;;25.20;62.60;;;;;;4167846;28;20052;-48
2021/08/30 10:36:11;;;;;;;3.30;3.00;;;25.20;62.70;;;;;;4166987;28;20050;-45
2021/08/30 10:38:18;;;;;;;3.05;2.85;;;25.20;62.60;;;;;;4167670;28;20111;-43
2021/08/30 10:40:21;;;;;;;3.40;3.10;;;25.20;62.60;;;;;;4167762;28;20095;-44
2021/08/30 10:42:27;;;;;;;3.10;2.90;;;25.20;62.70;;;;;;4167593;28;20071;-45
2021/08/30 10:44:30;;;;;;;3.35;3.05;;;25.20;62.60;;;;;;4166480;28;20038;-47